Terminal Aerodrome Forecast
Issued by NWS Houston/Galveston, TX

Home | Current Version | Previous Version | Text Only | Print | Product List | Glossary On
Versions: 1 2 3 4 5 6 7 8 9 10 11 12 13 14 15 16 17 18 19 20 21 22 23 24 25 26 27 28 29 30 31 32 33 34 35 36
000
FTUS44 KHGX 261720
TAFGLS
TAF
KGLS 261720Z 2618/2718 12013KT P6SM SCT035 BKN080
     FM262300 12013KT P6SM SCT020 BKN030
     FM270400 14012KT P6SM BKN025
     FM270800 15010KT 4SM BR SCT004 OVC015=

USA.gov is the U.S. government's official web portal to all federal, state and local government web resources and services.